sensor_id;sensor_type;location;lat;lon;timestamp;pressure;altitude;pressure_sealevel;temperature;humidity
47815;BME280;33579;50.058;18.130;2023-03-01T00:00:07;100518.41;;;-1.39;100.00
47815;BME280;33579;50.058;18.130;2023-03-01T00:01:17;100508.81;;;-1.29;100.00
47815;BME280;33579;50.058;18.130;2023-03-01T00:02:19;100516.38;;;-1.18;100.00
47815;BME280;33579;50.058;18.130;2023-03-01T00:03:21;100519.63;;;-1.08;100.00
47815;BME280;33579;50.058;18.130;2023-03-01T00:04:22;100519.53;;;-1.02;100.00
47815;BME280;33579;50.058;18.130;2023-03-01T00:05:24;100518.53;;;-0.95;100.00
47815;BME280;33579;50.058;18.130;2023-03-01T00:06:26;100524.50;;;-0.90;100.00
47815;BME280;33579;50.058;18.130;2023-03-01T00:07:28;100516.69;;;-0.87;100.00
47815;BME280;33579;50.058;18.130;2023-03-01T00:08:30;100518.31;;;-0.82;100.00
47815;BME280;33579;50.058;18.130;2023-03-01T00:09:31;100518.22;;;-0.78;100.00
47815;BME280;33579;50.058;18.130;2023-03-01T00:10:33;100520.72;;;-0.72;100.00
47815;BME280;33579;50.058;18.130;2023-03-01T00:11:34;100518.97;;;-0.71;100.00
47815;BME280;33579;50.058;18.130;2023-03-01T00:12:36;100525.81;;;-0.68;100.00
47815;BME280;33579;50.058;18.130;2023-03-01T00:13:38;100523.22;;;-0.68;100.00
47815;BME280;33579;50.058;18.130;2023-03-01T00:14:39;100528.38;;;-0.67;100.00
47815;BME280;33579;50.058;18.130;2023-03-01T00:15:41;100525.81;;;-0.67;100.00
47815;BME280;33579;50.058;18.130;2023-03-01T00:16:44;100524.91;;;-0.66;100.00
47815;BME280;33579;50.058;18.130;2023-03-01T00:17:45;100527.44;;;-0.63;100.00
47815;BME280;33579;50.058;18.130;2023-03-01T00:18:47;100529.22;;;-0.66;100.00
47815;BME280;33579;50.058;18.130;2023-03-01T00:19:49;100525.84;;;-0.70;100.00
47815;BME280;33579;50.058;18.130;2023-03-01T00:20:55;100531.00;;;-0.68;100.00
47815;BME280;33579;50.058;18.130;2023-03-01T00:21:57;100531.06;;;-0.72;100.00
47815;BME280;33579;50.058;18.130;2023-03-01T00:22:58;100526.72;;;-0.71;100.00
47815;BME280;33579;50.058;18.130;2023-03-01T00:24:00;100526.78;;;-0.74;100.00
47815;BME280;33579;50.058;18.130;2023-03-01T00:25:03;100526.78;;;-0.73;100.00
47815;BME280;33579;50.058;18.130;2023-03-01T00:26:07;100523.31;;;-0.72;100.00
47815;BME280;33579;50.058;18.130;2023-03-01T00:27:09;100529.25;;;-0.68;100.00
47815;BME280;33579;50.058;18.130;2023-03-01T00:28:11;100526.78;;;-0.73;100.00
47815;BME280;33579;50.058;18.130;2023-03-01T00:29:12;100528.47;;;-0.72;100.00
47815;BME280;33579;50.058;18.130;2023-03-01T00:30:14;100524.13;;;-0.69;100.00
47815;BME280;33579;50.058;18.130;2023-03-01T00:31:21;100531.06;;;-0.72;100.00
47815;BME280;33579;50.058;18.130;2023-03-01T00:32:23;100525.88;;;-0.72;100.00
47815;BME280;33579;50.058;18.130;2023-03-01T00:33:25;100523.31;;;-0.72;100.00
47815;BME280;33579;50.058;18.130;2023-03-01T00:34:26;100525.91;;;-0.73;100.00
47815;BME280;33579;50.058;18.130;2023-03-01T00:35:28;100526.81;;;-0.76;100.00
47815;BME280;33579;50.058;18.130;2023-03-01T00:36:32;100522.59;;;-0.80;100.00
47815;BME280;33579;50.058;18.130;2023-03-01T00:37:34;100518.22;;;-0.78;100.00
47815;BME280;33579;50.058;18.130;2023-03-01T00:38:38;100524.28;;;-0.79;100.00
47815;BME280;33579;50.058;18.130;2023-03-01T00:39:39;100524.41;;;-0.85;100.00
47815;BME280;33579;50.058;18.130;2023-03-01T00:40:41;100520.28;;;-0.95;100.00
47815;BME280;33579;50.058;18.130;2023-03-01T00:41:42;100523.78;;;-1.00;100.00
47815;BME280;33579;50.058;18.130;2023-03-01T00:42:44;100523.16;;;-1.11;100.00
47815;BME280;33579;50.058;18.130;2023-03-01T00:43:46;100525.06;;;-1.24;100.00
47815;BME280;33579;50.058;18.130;2023-03-01T00:44:47;100520.03;;;-1.32;100.00
47815;BME280;33579;50.058;18.130;2023-03-01T00:45:49;100517.53;;;-1.36;100.00
47815;BME280;33579;50.058;18.130;2023-03-01T00:46:50;100513.31;;;-1.44;100.00
47815;BME280;33579;50.058;18.130;2023-03-01T00:47:52;100517.66;;;-1.44;100.00
47815;BME280;33579;50.058;18.130;2023-03-01T00:48:54;100521.13;;;-1.48;100.00
47815;BME280;33579;50.058;18.130;2023-03-01T00:49:55;100515.22;;;-1.53;100.00
47815;BME280;33579;50.058;18.130;2023-03-01T00:51:04;100516.06;;;-1.53;100.00
47815;BME280;33579;50.058;18.130;2023-03-01T00:52:06;100518.75;;;-1.61;100.00
47815;BME280;33579;50.058;18.130;2023-03-01T00:53:07;100510.09;;;-1.57;100.00
47815;BME280;33579;50.058;18.130;2023-03-01T00:54:09;100506.66;;;-1.57;100.00
47815;BME280;33579;50.058;18.130;2023-03-01T00:55:11;100510.16;;;-1.60;100.00
47815;BME280;33579;50.058;18.130;2023-03-01T00:56:14;100505.81;;;-1.58;100.00
47815;BME280;33579;50.058;18.130;2023-03-01T00:57:17;100508.28;;;-1.50;100.00
47815;BME280;33579;50.058;18.130;2023-03-01T00:58:19;100499.59;;;-1.44;100.00
47815;BME280;33579;50.058;18.130;2023-03-01T00:59:20;100499.47;;;-1.38;100.00
47815;BME280;33579;50.058;18.130;2023-03-01T01:00:22;100495.03;;;-1.30;100.00
47815;BME280;33579;50.058;18.130;2023-03-01T01:01:26;100493.19;;;-1.21;100.00
47815;BME280;33579;50.058;18.130;2023-03-01T01:02:29;100499.03;;;-1.13;100.00
47815;BME280;33579;50.058;18.130;2023-03-01T01:03:30;100502.56;;;-1.16;100.00
47815;BME280;33579;50.058;18.130;2023-03-01T01:04:32;100499.91;;;-1.13;100.00
47815;BME280;33579;50.058;18.130;2023-03-01T01:05:34;100490.47;;;-1.14;100.00
47815;BME280;33579;50.058;18.130;2023-03-01T01:06:44;100500.97;;;-1.24;100.00
47815;BME280;33579;50.058;18.130;2023-03-01T01:07:47;100497.72;;;-1.36;100.00
47815;BME280;33579;50.058;18.130;2023-03-01T01:08:50;100498.56;;;-1.35;100.00
47815;BME280;33579;50.058;18.130;2023-03-01T01:09:52;100497.72;;;-1.36;100.00
47815;BME280;33579;50.058;18.130;2023-03-01T01:10:53;100493.53;;;-1.43;100.00
47815;BME280;33579;50.058;18.130;2023-03-01T01:11:55;100494.56;;;-1.53;100.00
47815;BME280;33579;50.058;18.130;2023-03-01T01:12:56;100496.38;;;-1.59;100.00
47815;BME280;33579;50.058;18.130;2023-03-01T01:13:58;100498.97;;;-1.62;100.00
47815;BME280;33579;50.058;18.130;2023-03-01T01:15:00;100504.38;;;-1.76;100.00
47815;BME280;33579;50.058;18.130;2023-03-01T01:16:02;100507.91;;;-1.83;100.00
47815;BME280;33579;50.058;18.130;2023-03-01T01:17:04;100506.13;;;-1.78;100.00
47815;BME280;33579;50.058;18.130;2023-03-01T01:18:06;100498.38;;;-1.78;100.00
47815;BME280;33579;50.058;18.130;2023-03-01T01:19:09;100506.09;;;-1.76;100.00
47815;BME280;33579;50.058;18.130;2023-03-01T01:20:11;100502.69;;;-1.78;100.00
47815;BME280;33579;50.058;18.130;2023-03-01T01:21:17;100506.91;;;-1.73;100.00
47815;BME280;33579;50.058;18.130;2023-03-01T01:22:18;100503.31;;;-1.64;100.00
47815;BME280;33579;50.058;18.130;2023-03-01T01:23:20;100498.03;;;-1.54;100.00
47815;BME280;33579;50.058;18.130;2023-03-01T01:24:21;100500.47;;;-1.47;100.00
47815;BME280;33579;50.058;18.130;2023-03-01T01:25:23;100496.13;;;-1.45;100.00
47815;BME280;33579;50.058;18.130;2023-03-01T01:26:28;100500.41;;;-1.42;100.00
47815;BME280;33579;50.058;18.130;2023-03-01T01:27:31;100495.16;;;-1.37;100.00
47815;BME280;33579;50.058;18.130;2023-03-01T01:28:32;100507.19;;;-1.35;100.00
47815;BME280;33579;50.058;18.130;2023-03-01T01:29:34;100507.22;;;-1.38;100.00
47815;BME280;33579;50.058;18.130;2023-03-01T01:30:36;100505.56;;;-1.42;100.00
47815;BME280;33579;50.058;18.130;2023-03-01T01:31:39;100504.75;;;-1.44;100.00
47815;BME280;33579;50.058;18.130;2023-03-01T01:32:40;100509.03;;;-1.43;100.00
47815;BME280;33579;50.058;18.130;2023-03-01T01:33:42;100503.88;;;-1.43;100.00
47815;BME280;33579;50.058;18.130;2023-03-01T01:34:44;100500.47;;;-1.47;100.00
47815;BME280;33579;50.058;18.130;2023-03-01T01:35:45;100498.09;;;-1.58;100.00
47815;BME280;33579;50.058;18.130;2023-03-01T01:36:49;100505.22;;;-1.75;100.00
47815;BME280;33579;50.058;18.130;2023-03-01T01:37:51;100497.75;;;-1.94;100.00
47815;BME280;33579;50.058;18.130;2023-03-01T01:38:52;100495.34;;;-2.08;100.00
47815;BME280;33579;50.058;18.130;2023-03-01T01:39:54;100495.59;;;-2.25;100.00
47815;BME280;33579;50.058;18.130;2023-03-01T01:40:56;100494.84;;;-2.33;100.00
47815;BME280;33579;50.058;18.130;2023-03-01T01:41:57;100494.97;;;-2.43;100.00
47815;BME280;33579;50.058;18.130;2023-03-01T01:42:59;100485.56;;;-2.47;100.00
47815;BME280;33579;50.058;18.130;2023-03-01T01:44:21;100489.84;;;-2.49;100.00
47815;BME280;33579;50.058;18.130;2023-03-01T01:46:32;100485.53;;;-2.45;100.00
47815;BME280;33579;50.058;18.130;2023-03-01T01:47:35;100487.19;;;-2.41;100.00
47815;BME280;33579;50.058;18.130;2023-03-01T01:48:41;100478.50;;;-2.34;100.00
47815;BME280;33579;50.058;18.130;2023-03-01T01:49:48;100478.41;;;-2.26;100.00
47815;BME280;33579;50.058;18.130;2023-03-01T01:50:56;100472.28;;;-2.17;100.00
47815;BME280;33579;50.058;18.130;2023-03-01T01:52:22;100469.63;;;-2.11;100.00
47815;BME280;33579;50.058;18.130;2023-03-01T01:53:25;100470.47;;;-2.10;100.00
47815;BME280;33579;50.058;18.130;2023-03-01T01:55:55;100475.41;;;-1.95;100.00
47815;BME280;33579;50.058;18.130;2023-03-01T01:57:02;100476.31;;;-1.98;100.00
47815;BME280;33579;50.058;18.130;2023-03-01T01:58:07;100483.16;;;-1.96;100.00
47815;BME280;33579;50.058;18.130;2023-03-01T01:59:10;100478.81;;;-1.91;100.00
47815;BME280;33579;50.058;18.130;2023-03-01T02:00:25;100473.56;;;-1.87;100.00
47815;BME280;33579;50.058;18.130;2023-03-01T02:01:27;100474.41;;;-1.85;100.00
47815;BME280;33579;50.058;18.130;2023-03-01T02:02:29;100472.63;;;-1.81;100.00
47815;BME280;33579;50.058;18.130;2023-03-01T02:03:32;100475.16;;;-1.78;100.00
47815;BME280;33579;50.058;18.130;2023-03-01T02:04:35;100472.53;;;-1.76;100.00
47815;BME280;33579;50.058;18.130;2023-03-01T02:05:53;100469.91;;;-1.73;100.00
47815;BME280;33579;50.058;18.130;2023-03-01T02:07:01;100470.78;;;-1.73;100.00
47815;BME280;33579;50.058;18.130;2023-03-01T02:08:05;100469.13;;;-1.77;100.00
47815;BME280;33579;50.058;18.130;2023-03-01T02:09:12;100467.56;;;-1.87;100.00
47815;BME280;33579;50.058;18.130;2023-03-01T02:10:15;100472.09;;;-2.03;100.00
47815;BME280;33579;50.058;18.130;2023-03-01T02:11:18;100464.53;;;-2.17;100.00
47815;BME280;33579;50.058;18.130;2023-03-01T02:12:23;100463.91;;;-2.33;100.00
47815;BME280;33579;50.058;18.130;2023-03-01T02:13:26;100455.31;;;-2.35;100.00
47815;BME280;33579;50.058;18.130;2023-03-01T02:14:28;100456.97;;;-2.28;100.00
47815;BME280;33579;50.058;18.130;2023-03-01T02:15:34;100455.13;;;-2.20;100.00
47815;BME280;33579;50.058;18.130;2023-03-01T02:16:36;100454.22;;;-2.16;100.00
47815;BME280;33579;50.058;18.130;2023-03-01T02:17:38;100453.22;;;-2.07;100.00
47815;BME280;33579;50.058;18.130;2023-03-01T02:18:41;100457.44;;;-2.00;100.00
47815;BME280;33579;50.058;18.130;2023-03-01T02:22:27;100453.97;;;-2.00;100.00
47815;BME280;33579;50.058;18.130;2023-03-01T02:23:30;100453.97;;;-1.99;100.00
47815;BME280;33579;50.058;18.130;2023-03-01T02:24:53;100454.75;;;-1.93;100.00
47815;BME280;33579;50.058;18.130;2023-03-01T02:26:06;100445.22;;;-1.90;100.00
47815;BME280;33579;50.058;18.130;2023-03-01T02:27:10;100456.44;;;-1.92;100.00
47815;BME280;33579;50.058;18.130;2023-03-01T02:29:16;100447.19;;;-2.06;100.00
47815;BME280;33579;50.058;18.130;2023-03-01T02:30:22;100447.34;;;-2.15;100.00
47815;BME280;33579;50.058;18.130;2023-03-01T02:31:23;100444.78;;;-2.18;100.00
47815;BME280;33579;50.058;18.130;2023-03-01T02:32:25;100444.72;;;-2.12;100.00
47815;BME280;33579;50.058;18.130;2023-03-01T02:33:27;100447.13;;;-2.01;100.00
47815;BME280;33579;50.058;18.130;2023-03-01T02:34:30;100443.53;;;-1.92;100.00
47815;BME280;33579;50.058;18.130;2023-03-01T02:35:35;100440.88;;;-1.85;100.00
47815;BME280;33579;50.058;18.130;2023-03-01T02:37:08;100442.56;;;-1.84;100.00
47815;BME280;33579;50.058;18.130;2023-03-01T02:38:10;100435.75;;;-1.88;100.00
47815;BME280;33579;50.058;18.130;2023-03-01T02:39:19;100442.50;;;-1.79;100.00
47815;BME280;33579;50.058;18.130;2023-03-01T02:40:22;100439.81;;;-1.73;100.00
47815;BME280;33579;50.058;18.130;2023-03-01T02:41:26;100444.09;;;-1.72;100.00
47815;BME280;33579;50.058;18.130;2023-03-01T02:42:36;100439.94;;;-1.79;100.00
47815;BME280;33579;50.058;18.130;2023-03-01T02:43:42;100437.44;;;-1.85;100.00
47815;BME280;33579;50.058;18.130;2023-03-01T02:44:44;100434.84;;;-1.85;100.00
47815;BME280;33579;50.058;18.130;2023-03-01T02:45:52;100433.28;;;-1.95;100.00
47815;BME280;33579;50.058;18.130;2023-03-01T02:46:56;100431.66;;;-2.01;100.00
47815;BME280;33579;50.058;18.130;2023-03-01T02:47:59;100433.41;;;-2.03;100.00
47815;BME280;33579;50.058;18.130;2023-03-01T02:49:01;100433.38;;;-2.02;100.00
47815;BME280;33579;50.058;18.130;2023-03-01T02:50:22;100436.72;;;-1.95;100.00
47815;BME280;33579;50.058;18.130;2023-03-01T02:51:45;100433.41;;;-2.05;100.00
47815;BME280;33579;50.058;18.130;2023-03-01T02:53:13;100440.38;;;-2.08;100.00
47815;BME280;33579;50.058;18.130;2023-03-01T02:55:33;100438.50;;;-2.00;100.00
47815;BME280;33579;50.058;18.130;2023-03-01T02:56:35;100442.72;;;-1.94;100.00
47815;BME280;33579;50.058;18.130;2023-03-01T02:57:40;100442.59;;;-1.87;100.00
47815;BME280;33579;50.058;18.130;2023-03-01T02:58:42;100444.22;;;-1.78;100.00
47815;BME280;33579;50.058;18.130;2023-03-01T02:59:46;100444.09;;;-1.73;100.00
47815;BME280;33579;50.058;18.130;2023-03-01T03:00:47;100441.44;;;-1.67;100.00
47815;BME280;33579;50.058;18.130;2023-03-01T03:01:49;100440.50;;;-1.63;100.00
47815;BME280;33579;50.058;18.130;2023-03-01T03:02:53;100440.50;;;-1.63;100.00
47815;BME280;33579;50.058;18.130;2023-03-01T03:03:59;100437.03;;;-1.62;100.00
47815;BME280;33579;50.058;18.130;2023-03-01T03:06:09;100435.41;;;-1.66;100.00
47815;BME280;33579;50.058;18.130;2023-03-01T03:07:11;100431.03;;;-1.62;100.00
47815;BME280;33579;50.058;18.130;2023-03-01T03:08:13;100429.28;;;-1.59;100.00
47815;BME280;33579;50.058;18.130;2023-03-01T03:09:16;100430.97;;;-1.58;100.00
47815;BME280;33579;50.058;18.130;2023-03-01T03:10:22;100432.75;;;-1.60;100.00
47815;BME280;33579;50.058;18.130;2023-03-01T03:11:24;100431.88;;;-1.62;100.00
47815;BME280;33579;50.058;18.130;2023-03-01T03:12:26;100432.00;;;-1.66;100.00
47815;BME280;33579;50.058;18.130;2023-03-01T03:13:28;100432.94;;;-1.74;100.00
47815;BME280;33579;50.058;18.130;2023-03-01T03:14:30;100429.50;;;-1.73;100.00
47815;BME280;33579;50.058;18.130;2023-03-01T03:15:31;100437.28;;;-1.76;100.00
47815;BME280;33579;50.058;18.130;2023-03-01T03:16:33;100433.03;;;-1.78;100.00
47815;BME280;33579;50.058;18.130;2023-03-01T03:17:38;100422.91;;;-1.92;100.00
47815;BME280;33579;50.058;18.130;2023-03-01T03:18:40;100424.66;;;-1.94;100.00
47815;BME280;33579;50.058;18.130;2023-03-01T03:19:42;100420.38;;;-1.95;100.00
47815;BME280;33579;50.058;18.130;2023-03-01T03:20:44;100431.50;;;-1.90;100.00
47815;BME280;33579;50.058;18.130;2023-03-01T03:21:46;100430.50;;;-1.81;100.00
47815;BME280;33579;50.058;18.130;2023-03-01T03:22:49;100427.88;;;-1.80;100.00
47815;BME280;33579;50.058;18.130;2023-03-01T03:23:51;100435.59;;;-1.77;100.00
47815;BME280;33579;50.058;18.130;2023-03-01T03:24:53;100426.97;;;-1.77;100.00
47815;BME280;33579;50.058;18.130;2023-03-01T03:25:54;100432.19;;;-1.79;100.00
47815;BME280;33579;50.058;18.130;2023-03-01T03:26:56;100433.03;;;-1.78;100.00
47815;BME280;33579;50.058;18.130;2023-03-01T03:27:57;100431.31;;;-1.78;100.00
47815;BME280;33579;50.058;18.130;2023-03-01T03:28:59;100433.00;;;-1.77;100.00
47815;BME280;33579;50.058;18.130;2023-03-01T03:30:00;100429.59;;;-1.79;100.00
47815;BME280;33579;50.058;18.130;2023-03-01T03:31:06;100430.44;;;-1.78;100.00
47815;BME280;33579;50.058;18.130;2023-03-01T03:32:07;100426.16;;;-1.79;100.00
47815;BME280;33579;50.058;18.130;2023-03-01T03:33:10;100429.59;;;-1.79;100.00
47815;BME280;33579;50.058;18.130;2023-03-01T03:34:14;100433.91;;;-1.79;100.00
47815;BME280;33579;50.058;18.130;2023-03-01T03:35:15;100424.47;;;-1.82;100.00
47815;BME280;33579;50.058;18.130;2023-03-01T03:36:20;100425.28;;;-1.80;100.00
47815;BME280;33579;50.058;18.130;2023-03-01T03:37:22;100421.97;;;-1.87;100.00
47815;BME280;33579;50.058;18.130;2023-03-01T03:38:23;100425.41;;;-1.86;100.00
47815;BME280;33579;50.058;18.130;2023-03-01T03:39:26;100426.28;;;-1.87;100.00
47815;BME280;33579;50.058;18.130;2023-03-01T03:40:36;100428.88;;;-1.89;100.00
47815;BME280;33579;50.058;18.130;2023-03-01T03:41:38;100422.06;;;-1.93;100.00
47815;BME280;33579;50.058;18.130;2023-03-01T03:42:40;100423.84;;;-1.98;100.00
47815;BME280;33579;50.058;18.130;2023-03-01T03:43:42;100420.44;;;-1.97;100.00
47815;BME280;33579;50.058;18.130;2023-03-01T03:44:44;100423.03;;;-1.99;100.00
47815;BME280;33579;50.058;18.130;2023-03-01T03:45:46;100421.31;;;-2.01;100.00
47815;BME280;33579;50.058;18.130;2023-03-01T03:46:48;100417.22;;;-2.15;100.00
47815;BME280;33579;50.058;18.130;2023-03-01T03:47:50;100419.81;;;-2.13;100.00
47815;BME280;33579;50.058;18.130;2023-03-01T03:48:51;100415.53;;;-2.16;100.00
47815;BME280;33579;50.058;18.130;2023-03-01T03:49:53;100418.94;;;-2.14;100.00
47815;BME280;33579;50.058;18.130;2023-03-01T03:50:56;100426.63;;;-2.10;100.00
47815;BME280;33579;50.058;18.130;2023-03-01T03:51:57;100418.09;;;-2.16;100.00
47815;BME280;33579;50.058;18.130;2023-03-01T03:53:03;100420.63;;;-2.13;100.00
47815;BME280;33579;50.058;18.130;2023-03-01T03:54:05;100418.94;;;-2.12;100.00
47815;BME280;33579;50.058;18.130;2023-03-01T03:55:09;100421.47;;;-2.10;100.00
47815;BME280;33579;50.058;18.130;2023-03-01T03:56:11;100414.53;;;-2.07;100.00
47815;BME280;33579;50.058;18.130;2023-03-01T03:57:13;100421.38;;;-2.04;100.00
47815;BME280;33579;50.058;18.130;2023-03-01T03:58:15;100416.22;;;-2.03;100.00
47815;BME280;33579;50.058;18.130;2023-03-01T03:59:17;100417.06;;;-2.04;100.00
47815;BME280;33579;50.058;18.130;2023-03-01T04:00:20;100423.84;;;-1.98;100.00
47815;BME280;33579;50.058;18.130;2023-03-01T04:01:23;100414.41;;;-1.98;100.00
47815;BME280;33579;50.058;18.130;2023-03-01T04:02:24;100419.56;;;-1.99;100.00
47815;BME280;33579;50.058;18.130;2023-03-01T04:03:29;100418.66;;;-1.95;100.00
47815;BME280;33579;50.058;18.130;2023-03-01T04:04:30;100420.31;;;-1.89;100.00
47815;BME280;33579;50.058;18.130;2023-03-01T04:05:33;100420.38;;;-1.94;100.00
47815;BME280;33579;50.058;18.130;2023-03-01T04:06:34;100418.69;;;-1.96;100.00
47815;BME280;33579;50.058;18.130;2023-03-01T04:07:37;100415.22;;;-1.94;100.00
47815;BME280;33579;50.058;18.130;2023-03-01T04:08:39;100418.66;;;-1.95;100.00
47815;BME280;33579;50.058;18.130;2023-03-01T04:09:41;100416.94;;;-1.94;100.00
47815;BME280;33579;50.058;18.130;2023-03-01T04:10:46;100420.38;;;-1.94;100.00
47815;BME280;33579;50.058;18.130;2023-03-01T04:11:48;100421.19;;;-1.92;100.00
47815;BME280;33579;50.058;18.130;2023-03-01T04:12:49;100421.38;;;-2.03;100.00
47815;BME280;33579;50.058;18.130;2023-03-01T04:13:53;100418.81;;;-2.04;100.00
47815;BME280;33579;50.058;18.130;2023-03-01T04:14:55;100411.00;;;-2.01;100.00
47815;BME280;33579;50.058;18.130;2023-03-01T04:15:56;100414.47;;;-2.04;100.00
47815;BME280;33579;50.058;18.130;2023-03-01T04:16:58;100416.25;;;-2.06;100.00
47815;BME280;33579;50.058;18.130;2023-03-01T04:18:00;100417.09;;;-2.05;100.00
47815;BME280;33579;50.058;18.130;2023-03-01T04:19:02;100421.31;;;-2.00;100.00
47815;BME280;33579;50.058;18.130;2023-03-01T04:20:03;100420.38;;;-1.94;100.00
47815;BME280;33579;50.058;18.130;2023-03-01T04:21:05;100424.66;;;-1.93;100.00
47815;BME280;33579;50.058;18.130;2023-03-01T04:22:06;100423.84;;;-1.96;100.00
47815;BME280;33579;50.058;18.130;2023-03-01T04:23:15;100424.66;;;-1.93;100.00
47815;BME280;33579;50.058;18.130;2023-03-01T04:24:17;100428.03;;;-1.89;100.00
47815;BME280;33579;50.058;18.130;2023-03-01T04:25:19;100428.91;;;-1.90;100.00
47815;BME280;33579;50.058;18.130;2023-03-01T04:26:21;100425.47;;;-1.89;100.00
47815;BME280;33579;50.058;18.130;2023-03-01T04:27:22;100434.09;;;-1.90;100.00
47815;BME280;33579;50.058;18.130;2023-03-01T04:28:29;100418.69;;;-1.98;100.00
47815;BME280;33579;50.058;18.130;2023-03-01T04:29:31;100419.63;;;-2.02;100.00
47815;BME280;33579;50.058;18.130;2023-03-01T04:30:33;100422.41;;;-2.16;100.00
47815;BME280;33579;50.058;18.130;2023-03-01T04:31:34;100416.47;;;-2.23;100.00
47815;BME280;33579;50.058;18.130;2023-03-01T04:32:36;100422.75;;;-2.40;100.00
47815;BME280;33579;50.058;18.130;2023-03-01T04:33:41;100419.34;;;-2.42;100.00
47815;BME280;33579;50.058;18.130;2023-03-01T04:34:43;100418.53;;;-2.45;100.00
47815;BME280;33579;50.058;18.130;2023-03-01T04:35:44;100421.03;;;-2.42;100.00
47815;BME280;33579;50.058;18.130;2023-03-01T04:36:46;100420.97;;;-2.36;100.00
47815;BME280;33579;50.058;18.130;2023-03-01T04:37:47;100424.31;;;-2.29;100.00
47815;BME280;33579;50.058;18.130;2023-03-01T04:38:50;100418.22;;;-2.25;100.00
47815;BME280;33579;50.058;18.130;2023-03-01T04:39:52;100423.38;;;-2.23;100.00
47815;BME280;33579;50.058;18.130;2023-03-01T04:40:53;100422.53;;;-2.24;100.00
47815;BME280;33579;50.058;18.130;2023-03-01T04:41:55;100420.81;;;-2.25;100.00
47815;BME280;33579;50.058;18.130;2023-03-01T04:42:56;100425.13;;;-2.26;100.00
47815;BME280;33579;50.058;18.130;2023-03-01T04:43:58;100422.50;;;-2.21;100.00
47815;BME280;33579;50.058;18.130;2023-03-01T04:44:59;100426.72;;;-2.17;100.00
47815;BME280;33579;50.058;18.130;2023-03-01T04:46:06;100431.00;;;-2.14;100.00
47815;BME280;33579;50.058;18.130;2023-03-01T04:47:08;100435.28;;;-2.13;100.00
47815;BME280;33579;50.058;18.130;2023-03-01T04:48:10;100433.53;;;-2.11;100.00
47815;BME280;33579;50.058;18.130;2023-03-01T04:49:11;100438.66;;;-2.09;100.00
47815;BME280;33579;50.058;18.130;2023-03-01T04:50:16;100430.00;;;-2.07;100.00
47815;BME280;33579;50.058;18.130;2023-03-01T04:51:18;100430.06;;;-2.08;100.00
47815;BME280;33579;50.058;18.130;2023-03-01T04:52:20;100425.69;;;-2.05;100.00
47815;BME280;33579;50.058;18.130;2023-03-01T04:53:21;100425.84;;;-2.14;100.00
47815;BME280;33579;50.058;18.130;2023-03-01T04:54:23;100425.03;;;-2.18;100.00
47815;BME280;33579;50.058;18.130;2023-03-01T04:55:28;100428.47;;;-2.19;100.00
47815;BME280;33579;50.058;18.130;2023-03-01T04:56:30;100429.31;;;-2.17;100.00
47815;BME280;33579;50.058;18.130;2023-03-01T04:57:32;100430.13;;;-2.13;100.00
47815;BME280;33579;50.058;18.130;2023-03-01T04:58:34;100426.66;;;-2.12;100.00
47815;BME280;33579;50.058;18.130;2023-03-01T04:59:35;100434.34;;;-2.09;100.00
47815;BME280;33579;50.058;18.130;2023-03-01T05:00:37;100434.34;;;-2.07;100.00
47815;BME280;33579;50.058;18.130;2023-03-01T05:01:39;100431.69;;;-2.04;100.00
47815;BME280;33579;50.058;18.130;2023-03-01T05:02:40;100433.34;;;-2.00;100.00
47815;BME280;33579;50.058;18.130;2023-03-01T05:03:47;100436.91;;;-2.07;100.00
47815;BME280;33579;50.058;18.130;2023-03-01T05:04:49;100429.19;;;-2.10;100.00
47815;BME280;33579;50.058;18.130;2023-03-01T05:05:52;100425.03;;;-2.19;100.00
47815;BME280;33579;50.058;18.130;2023-03-01T05:06:53;100435.44;;;-2.26;100.00
47815;BME280;33579;50.058;18.130;2023-03-01T05:07:56;100433.81;;;-2.31;100.00
47815;BME280;33579;50.058;18.130;2023-03-01T05:08:58;100434.75;;;-2.37;100.00
47815;BME280;33579;50.058;18.130;2023-03-01T05:10:00;100427.94;;;-2.43;100.00
47815;BME280;33579;50.058;18.130;2023-03-01T05:11:01;100434.03;;;-2.50;100.00
47815;BME280;33579;50.058;18.130;2023-03-01T05:12:03;100435.78;;;-2.54;100.00
47815;BME280;33579;50.058;18.130;2023-03-01T05:13:04;100429.09;;;-2.64;100.00
47815;BME280;33579;50.058;18.130;2023-03-01T05:14:07;100433.41;;;-2.69;100.00
47815;BME280;33579;50.058;18.130;2023-03-01T05:15:09;100432.63;;;-2.74;100.00
47815;BME280;33579;50.058;18.130;2023-03-01T05:16:11;100434.34;;;-2.75;100.00
47815;BME280;33579;50.058;18.130;2023-03-01T05:17:13;100433.50;;;-2.75;100.00
47815;BME280;33579;50.058;18.130;2023-03-01T05:18:15;100431.75;;;-2.73;100.00
47815;BME280;33579;50.058;18.130;2023-03-01T05:19:17;100433.41;;;-2.67;100.00
47815;BME280;33579;50.058;18.130;2023-03-01T05:20:18;100432.53;;;-2.65;100.00
47815;BME280;33579;50.058;18.130;2023-03-01T05:21:20;100439.38;;;-2.64;100.00
47815;BME280;33579;50.058;18.130;2023-03-01T05:22:21;100438.63;;;-2.72;100.00
47815;BME280;33579;50.058;18.130;2023-03-01T05:23:23;100432.59;;;-2.70;100.00
47815;BME280;33579;50.058;18.130;2023-03-01T05:24:24;100432.59;;;-2.71;100.00
47815;BME280;33579;50.058;18.130;2023-03-01T05:25:27;100436.88;;;-2.70;100.00
47815;BME280;33579;50.058;18.130;2023-03-01T05:26:28;100430.03;;;-2.73;100.00
47815;BME280;33579;50.058;18.130;2023-03-01T05:27:30;100434.38;;;-2.78;100.00
47815;BME280;33579;50.058;18.130;2023-03-01T05:28:32;100425.88;;;-2.83;100.00
47815;BME280;33579;50.058;18.130;2023-03-01T05:29:34;100425.00;;;-2.82;100.00
47815;BME280;33579;50.058;18.130;2023-03-01T05:30:35;100429.34;;;-2.86;100.00